createdAt,value
2022-12-16T00:05:01.437Z,23.4
2022-12-16T00:10:19.797Z,23.4
2022-12-16T00:15:38.266Z,23.4
2022-12-16T00:20:56.513Z,23.4
2022-12-16T00:26:15.002Z,23.4
2022-12-16T00:31:33.418Z,23.4
2022-12-16T00:36:51.442Z,23.4
2022-12-16T00:42:10.508Z,23.4
2022-12-16T00:47:29.251Z,23.4
2022-12-16T00:52:47.508Z,23.4
2022-12-16T00:58:05.978Z,23.4
2022-12-16T01:03:24.903Z,23.4
2022-12-16T01:08:43.817Z,23.4
2022-12-16T01:14:01.812Z,23.4
2022-12-16T01:19:20.556Z,23.5
2022-12-16T01:24:38.806Z,23.4
2022-12-16T01:29:57.289Z,23.5
2022-12-16T01:35:55.731Z,23.5
2022-12-16T01:41:14.795Z,23.5
2022-12-16T01:46:33.056Z,23.5
2022-12-16T01:51:55.646Z,23.5
2022-12-16T01:57:13.851Z,23.5
2022-12-16T02:02:32.685Z,23.5
2022-12-16T02:07:51.402Z,23.5
2022-12-16T02:13:10.933Z,23.5
2022-12-16T02:18:28.839Z,23.5
2022-12-16T02:23:46.780Z,23.5
2022-12-16T02:29:05.004Z,23.5
2022-12-16T02:34:23.335Z,23.5
2022-12-16T02:39:41.556Z,23.6
2022-12-16T02:45:00.057Z,23.6
2022-12-16T02:50:18.248Z,23.6
2022-12-16T02:55:36.775Z,23.6
2022-12-16T03:00:55.334Z,23.5
2022-12-16T03:06:13.723Z,23.5
2022-12-16T03:11:32.210Z,23.5
2022-12-16T03:16:50.950Z,23.6
2022-12-16T03:22:09.663Z,23.6
2022-12-16T03:27:28.423Z,23.6
2022-12-16T03:32:46.937Z,23.6
2022-12-16T03:38:05.401Z,23.6
2022-12-16T03:43:24.172Z,23.6
2022-12-16T03:48:42.663Z,23.6
2022-12-16T03:54:01.136Z,23.6
2022-12-16T03:59:19.618Z,23.6
2022-12-16T04:04:38.126Z,23.6
2022-12-16T04:09:56.330Z,23.6
2022-12-16T04:15:14.790Z,23.6
2022-12-16T04:20:33.001Z,23.6
2022-12-16T04:25:51.454Z,23.6
2022-12-16T04:31:09.576Z,23.6
2022-12-16T04:36:27.971Z,23.6
2022-12-16T04:41:46.152Z,23.7
2022-12-16T04:47:04.793Z,23.6
2022-12-16T04:52:23.611Z,23.6
2022-12-16T04:57:41.955Z,23.6
2022-12-16T05:03:00.176Z,23.6
2022-12-16T05:08:18.953Z,23.6
2022-12-16T05:13:37.328Z,23.6
2022-12-16T05:18:55.538Z,23.6
2022-12-16T05:24:14.055Z,23.6
2022-12-16T05:29:32.809Z,23.6
2022-12-16T05:34:51.041Z,23.6
2022-12-16T05:40:09.257Z,23.6
2022-12-16T05:45:27.743Z,23.6
2022-12-16T05:50:45.959Z,23.6
2022-12-16T05:56:04.782Z,23.6
2022-12-16T06:01:23.274Z,23.6
2022-12-16T06:06:42.274Z,23.6
2022-12-16T06:12:00.755Z,23.6
2022-12-16T06:17:18.985Z,23.6
2022-12-16T06:22:37.476Z,23.6
2022-12-16T06:27:56.010Z,23.6
2022-12-16T06:33:14.472Z,23.5
2022-12-16T06:38:32.954Z,23.5
2022-12-16T06:43:51.456Z,23.5
2022-12-16T06:49:09.693Z,23.5
2022-12-16T06:54:28.163Z,23.5
2022-12-16T06:59:46.687Z,23.5
2022-12-16T07:05:05.462Z,23.5
2022-12-16T07:10:25.085Z,23.5
2022-12-16T07:15:43.891Z,23.5
2022-12-16T07:21:02.361Z,23.5
2022-12-16T07:26:20.878Z,23.5
2022-12-16T07:31:39.540Z,23.5
2022-12-16T07:36:57.988Z,23.5
2022-12-16T07:47:48.150Z,23.5
2022-12-16T07:53:06.403Z,23.5
2022-12-16T07:58:24.904Z,23.5
2022-12-16T08:03:43.623Z,23.5
2022-12-16T08:09:02.026Z,23.5
2022-12-16T08:14:20.804Z,23.6
2022-12-16T08:19:39.305Z,23.6
2022-12-16T08:24:57.608Z,23.6
2022-12-16T08:30:15.827Z,23.6
2022-12-16T08:35:18.733Z,23.7
2022-12-16T08:40:37.615Z,23.7
2022-12-16T08:45:56.453Z,23.7
2022-12-16T08:51:14.627Z,23.8
2022-12-16T08:56:32.984Z,23.8
2022-12-16T09:01:52.103Z,23.9
2022-12-16T09:07:14.130Z,23.9
2022-12-16T09:12:32.063Z,23.9
2022-12-16T09:17:50.248Z,24.1
2022-12-16T09:23:09.295Z,24.2
2022-12-16T09:28:27.754Z,24.2
2022-12-16T09:33:45.968Z,24.3
2022-12-16T09:39:04.832Z,24.3
2022-12-16T09:44:24.545Z,24.3
2022-12-16T09:49:43.038Z,24.4
2022-12-16T09:55:01.822Z,24.4
2022-12-16T10:00:20.319Z,24.4
2022-12-16T10:05:38.528Z,24.5
2022-12-16T10:10:57.336Z,24.5
2022-12-16T10:16:16.377Z,24.5
2022-12-16T10:21:34.821Z,24.5
2022-12-16T10:26:53.646Z,24.5
2022-12-16T10:32:12.131Z,24.6
2022-12-16T10:37:30.635Z,24.6
2022-12-16T10:42:49.541Z,24.6
2022-12-16T10:48:08.032Z,24.6
2022-12-16T10:53:27.559Z,24.6
2022-12-16T10:58:46.392Z,24.6
2022-12-16T11:04:05.054Z,24.6
2022-12-16T11:09:23.659Z,24.6
2022-12-16T11:15:27.386Z,24.6
2022-12-16T11:20:47.526Z,24.6
2022-12-16T11:26:05.455Z,24.6
2022-12-16T11:31:24.256Z,24.6
2022-12-16T11:36:42.603Z,24.6
2022-12-16T11:42:01.389Z,24.6
2022-12-16T11:47:19.903Z,24.6
2022-12-16T11:52:38.313Z,24.6
2022-12-16T11:57:56.515Z,24.6
2022-12-16T12:03:15.170Z,24.6
2022-12-16T12:08:33.333Z,24.6
2022-12-16T12:13:53.478Z,24.5
2022-12-16T12:19:14.614Z,24.5
2022-12-16T12:24:33.216Z,24.5
2022-12-16T12:29:51.691Z,24.5
2022-12-16T12:35:11.245Z,24.5
2022-12-16T12:40:30.003Z,24.5
2022-12-16T12:45:48.504Z,24.4
2022-12-16T12:51:07.288Z,24.4
2022-12-16T12:56:25.491Z,24.4
2022-12-16T13:01:44.190Z,24.4
2022-12-16T13:07:03.228Z,24.3
2022-12-16T13:12:21.413Z,24.3
2022-12-16T13:17:40.188Z,24.3
2022-12-16T13:22:58.714Z,24.3
2022-12-16T13:28:17.538Z,24.3
2022-12-16T13:33:36.438Z,24.3
2022-12-16T13:38:54.809Z,24.2
2022-12-16T13:44:12.747Z,24.2
2022-12-16T13:49:31.506Z,24.2
2022-12-16T13:54:49.879Z,24.2
2022-12-16T14:00:08.510Z,24.1
2022-12-16T14:05:27.126Z,24.1
2022-12-16T14:10:45.640Z,24.1
2022-12-16T14:16:04.282Z,24.1
2022-12-16T14:21:22.804Z,24.1
2022-12-16T14:26:41.309Z,24
2022-12-16T14:31:59.936Z,24
2022-12-16T14:37:24.377Z,24
2022-12-16T14:42:42.860Z,24
2022-12-16T14:48:01.705Z,24
2022-12-16T14:53:20.227Z,24
2022-12-16T14:58:39.032Z,24
2022-12-16T15:03:57.830Z,24
2022-12-16T15:09:16.500Z,23.9
2022-12-16T15:14:34.999Z,23.9
2022-12-16T15:19:53.327Z,23.9
2022-12-16T15:25:14.676Z,23.9
2022-12-16T15:30:33.534Z,23.9
2022-12-16T15:35:51.613Z,23.9
2022-12-16T15:41:09.834Z,23.9
2022-12-16T15:46:28.284Z,23.8
2022-12-16T15:51:46.867Z,23.9
2022-12-16T15:57:05.619Z,23.8
2022-12-16T16:02:24.681Z,23.8
2022-12-16T16:07:43.942Z,23.8
2022-12-16T16:13:05.714Z,23.9
2022-12-16T16:18:23.945Z,23.9
2022-12-16T16:23:42.791Z,23.9
2022-12-16T16:29:01.558Z,23.9
2022-12-16T16:34:20.096Z,23.9
2022-12-16T16:39:22.399Z,23.9
2022-12-16T16:44:40.579Z,23.9
2022-12-16T16:49:59.792Z,23.9
2022-12-16T16:55:18.327Z,23.9
2022-12-16T17:00:36.967Z,23.9
2022-12-16T17:05:55.340Z,23.9
2022-12-16T17:11:13.812Z,23.9
2022-12-16T17:16:32.616Z,23.9
2022-12-16T17:21:51.398Z,23.9
2022-12-16T17:27:09.656Z,23.9
2022-12-16T17:32:27.835Z,23.9
2022-12-16T17:37:46.068Z,23.9
2022-12-16T17:43:04.803Z,23.9
2022-12-16T17:48:23.298Z,23.9
2022-12-16T17:53:41.791Z,23.9
2022-12-16T17:59:02.015Z,23.9
2022-12-16T18:04:23.721Z,23.9
2022-12-16T18:09:26.503Z,23.9
2022-12-16T18:14:45.248Z,23.9
2022-12-16T18:19:47.834Z,23.9
2022-12-16T18:25:09.201Z,23.9
2022-12-16T18:30:27.661Z,23.9
2022-12-16T18:35:46.408Z,23.9
2022-12-16T18:41:05.255Z,23.9
2022-12-16T18:46:23.482Z,23.9
2022-12-16T18:51:42.192Z,23.9
2022-12-16T18:57:01.724Z,23.9
2022-12-16T19:02:21.212Z,23.9
2022-12-16T19:07:40.233Z,23.9
2022-12-16T19:12:58.768Z,23.9
2022-12-16T19:18:17.512Z,23.9
2022-12-16T19:23:36.792Z,23.9
2022-12-16T19:28:56.691Z,23.9
2022-12-16T19:34:00.697Z,23.9
2022-12-16T19:39:19.837Z,23.9
2022-12-16T19:44:38.648Z,23.9
2022-12-16T19:49:56.575Z,23.9
2022-12-16T19:55:18.007Z,23.9
2022-12-16T20:00:36.769Z,23.9
2022-12-16T20:05:56.334Z,23.9
2022-12-16T20:11:14.843Z,23.9
2022-12-16T20:16:33.596Z,23.9
2022-12-16T20:21:57.570Z,23.8
2022-12-16T22:41:38.807Z,23.9
2022-12-16T22:46:57.580Z,24
2022-12-16T22:52:16.055Z,24
2022-12-16T22:57:34.309Z,24
2022-12-16T23:02:53.962Z,24
2022-12-16T23:08:12.434Z,24
2022-12-16T23:13:30.944Z,23.9
2022-12-16T23:18:49.423Z,23.9
2022-12-16T23:24:08.184Z,23.9
2022-12-16T23:29:27.583Z,23.9
2022-12-16T23:34:46.595Z,23.9
2022-12-16T23:40:04.824Z,23.9
2022-12-16T23:45:23.333Z,23.9
2022-12-16T23:50:41.803Z,23.9
2022-12-16T23:56:00.272Z,23.9
